Szolnok, Hungary

8:45 PM CET on February 21, 2017 (GMT +0100)
Szolnok | | Change Station

Elev 282 ft 47.17 °N, 20.18 °E | Updated 33 seconds ago

Clear
Clear
44.7 °F
Feels Like 41 °F
N
7.0
Wind Variable Wind from West
Gusts 12.0 mph

Today
High -- | Low -- °F
--% Chance of Precip.
Yesterday
High -- | Low -- °F
Precip. -- in
Pressure 29.89 in
Visibility 6.2 miles
Clouds Few 3000 ft
Mostly Cloudy 6000 ft
Windchill 41 °F
Dew Point 42 °F
Humidity 92%
Rainfall 0.03 in
Snow Depth Not available.
6:33 AM 5:12 PM
Waning Crescent, 23% visible
METAR LHBP 211930Z 27010KT 9999 FEW030 BKN060 09/05 Q1012 NOSIG
Pressure 29.89 in
Visibility 6.2 miles
Clouds Few 3000 ft
Mostly Cloudy 6000 ft
Windchill 41 °F
Dew Point 42 °F
Humidity 92%
Rainfall 0.03 in
Snow Depth Not available.
6:33 AM 5:12 PM
Waning Crescent, 23% visible
METAR LHBP 211930Z 27010KT 9999 FEW030 BKN060 09/05 Q1012 NOSIG

Get Your Daily Forecast Email!

Thanks for signing up!

Be on the lookout for a verification email in your inbox.

You'll start receiving the daily forecast at 8 AM.

×

10-Day Weather Forecast

×

Almanac

Astronomy

Feb. 21, 2017 Rise Set
Actual Time
Civil Twilight
Nautical Twilight
Astronomical Twilight
Moon
Length of Visible Light
Length of Day
Tomorrow will be .
, % of the Moon is Illuminated

Today's Extremes

Country Highs Country Lows

Community

WunderPhotos

Upload Photos

1,962,540 photos uploaded!

WunderBlog® & News

Nearby

Air Quality

  Air Quality AQ Index Pollutant
Not available.

Snow Depth

Station Depth Elevation

Earthquake Activity

City Distance Mag. Time & Date
Minimum magnitude displayed is 2.5.

Coastal Water Temperatures

Place Temperature

Stations

Nearby Weather Stations

Station Location Temp. Windchill Dew Point Humidity Wind Precip. Elev Updated Type